Time;durP1;ratioP1;P1;durP2;ratioP2;P2;SDS_P1;SDS_P2;PMS_P1;PMS_P2;Temp;Humidity;BMP_temperature;BMP_pressure;BME280_temperature;BME280_humidity;BME280_pressure;Samples;Min_cycle;Max_cycle;Signal;HPM_P1;HPM_P2
2023/12/20 00:01:11;;;;;;;3.67;3.07;;;21.70;73.40;;;;;;5032379;28;20461;-50
2023/12/20 00:03:37;;;;;;;3.60;2.73;;;21.70;73.30;;;;;;5033402;28;20468;-55
2023/12/20 00:06:04;;;;;;;10.93;4.07;;;21.60;73.30;;;;;;5033445;28;20457;-54
2023/12/20 00:08:31;;;;;;;3.80;3.00;;;21.60;73.30;;;;;;5034792;28;20468;-57
2023/12/20 00:10:59;;;;;;;3.73;3.40;;;21.60;73.30;;;;;;5035345;28;20458;-51
2023/12/20 00:13:25;;;;;;;3.23;2.70;;;21.60;73.40;;;;;;5032510;28;20461;-54
2023/12/20 00:15:53;;;;;;;4.03;2.93;;;21.60;73.40;;;;;;5032454;28;20466;-53
2023/12/20 00:18:19;;;;;;;3.80;2.70;;;21.60;73.30;;;;;;5033100;28;20594;-55
2023/12/20 00:20:46;;;;;;;4.27;3.43;;;21.60;73.40;;;;;;5033400;28;20461;-54
2023/12/20 00:23:13;;;;;;;4.00;2.97;;;21.60;73.40;;;;;;5035654;28;20465;-55
2023/12/20 00:25:39;;;;;;;4.97;3.20;;;21.50;73.40;;;;;;5034814;28;20472;-54
2023/12/20 00:28:07;;;;;;;3.60;3.20;;;21.50;73.30;;;;;;5036442;28;20976;-53
2023/12/20 00:30:34;;;;;;;5.03;3.03;;;21.50;73.40;;;;;;5032629;28;20465;-50
2023/12/20 00:33:01;;;;;;;3.07;2.77;;;21.50;73.40;;;;;;5036692;28;20469;-53
2023/12/20 00:35:27;;;;;;;3.17;2.87;;;21.50;73.40;;;;;;5035155;28;20450;-51
2023/12/20 00:37:54;;;;;;;4.23;3.10;;;21.50;73.40;;;;;;5038068;28;20480;-55
2023/12/20 00:40:22;;;;;;;3.23;2.63;;;21.50;73.50;;;;;;5034098;28;20950;-55
2023/12/20 00:42:48;;;;;;;3.47;3.17;;;21.40;73.30;;;;;;5037655;28;20488;-54
2023/12/20 00:45:16;;;;;;;5.43;4.03;;;21.50;73.50;;;;;;5034770;28;20907;-51
2023/12/20 00:47:43;;;;;;;2.83;2.50;;;21.40;73.40;;;;;;5035927;28;20965;-53
2023/12/20 00:50:10;;;;;;;4.60;2.73;;;21.40;73.40;;;;;;5033801;28;20202;-55
2023/12/20 00:52:37;;;;;;;3.60;2.70;;;21.40;73.40;;;;;;5037680;28;21535;-53
2023/12/20 00:55:04;;;;;;;3.03;2.70;;;21.40;73.40;;;;;;5034744;28;20509;-55
2023/12/20 00:57:31;;;;;;;3.20;2.90;;;21.40;73.30;;;;;;5036311;28;20630;-52
2023/12/20 00:59:58;;;;;;;3.97;2.90;;;21.40;73.30;;;;;;5038146;28;24868;-55
2023/12/20 01:02:26;;;;;;;4.77;3.00;;;21.40;73.40;;;;;;5037125;28;20456;-54
2023/12/20 01:04:52;;;;;;;3.60;3.20;;;21.40;73.40;;;;;;5037657;28;20469;-53
2023/12/20 01:07:19;;;;;;;4.47;2.60;;;21.30;73.30;;;;;;5037247;28;20202;-55
2023/12/20 01:09:46;;;;;;;3.20;2.90;;;21.30;73.20;;;;;;5035226;28;20548;-54
2023/12/20 01:12:12;;;;;;;3.40;3.10;;;21.40;73.40;;;;;;5034499;28;20825;-53
2023/12/20 01:14:40;;;;;;;4.23;3.03;;;21.30;73.40;;;;;;5032253;28;20459;-53
2023/12/20 01:17:06;;;;;;;2.83;2.20;;;21.40;73.50;;;;;;5036227;28;20512;-54
2023/12/20 01:19:34;;;;;;;2.93;2.60;;;21.30;73.40;;;;;;5033279;28;20538;-55
2023/12/20 01:22:01;;;;;;;3.03;2.58;;;21.30;73.40;;;;;;5033682;28;20453;-55
2023/12/20 01:24:28;;;;;;;2.73;2.40;;;21.30;73.50;;;;;;5032459;28;20195;-54
2023/12/20 01:26:54;;;;;;;3.08;2.78;;;21.30;73.40;;;;;;5032291;28;20462;-57
2023/12/20 01:29:21;;;;;;;2.40;2.20;;;21.30;73.40;;;;;;5032364;28;20195;-56
2023/12/20 01:31:47;;;;;;;2.77;2.27;;;21.30;73.40;;;;;;5033498;28;21043;-55
2023/12/20 01:34:14;;;;;;;3.30;3.00;;;21.30;73.60;;;;;;5033053;28;21044;-53
2023/12/20 01:36:42;;;;;;;4.40;2.97;;;21.20;73.40;;;;;;5035135;28;20817;-57
2023/12/20 01:39:09;;;;;;;3.50;2.53;;;21.30;73.60;;;;;;5032892;28;20538;-54
2023/12/20 01:41:35;;;;;;;2.50;2.10;;;21.20;73.40;;;;;;5027342;28;20465;-52
2023/12/20 01:44:02;;;;;;;2.72;2.15;;;21.20;73.40;;;;;;5033063;28;20453;-55
2023/12/20 01:46:29;;;;;;;5.40;2.45;;;21.20;73.40;;;;;;5030216;28;20215;-57
2023/12/20 01:48:55;;;;;;;3.93;3.37;;;21.30;73.50;;;;;;5034154;28;20195;-55
2023/12/20 01:51:23;;;;;;;3.28;2.70;;;21.20;73.40;;;;;;5030336;28;20459;-57
2023/12/20 01:53:51;;;;;;;2.85;2.63;;;21.20;73.50;;;;;;5031771;28;20202;-54
2023/12/20 01:56:18;;;;;;;3.40;3.10;;;21.20;74.20;;;;;;5030256;28;20226;-51
2023/12/20 01:58:46;;;;;;;3.17;2.70;;;21.20;73.60;;;;;;5030030;28;20472;-56
2023/12/20 02:01:13;;;;;;;4.65;2.90;;;21.20;73.40;;;;;;5031541;28;20196;-54
2023/12/20 02:03:41;;;;;;;3.13;2.63;;;21.20;73.60;;;;;;5030317;28;20210;-54
2023/12/20 02:06:08;;;;;;;3.40;2.50;;;21.10;73.60;;;;;;5037316;28;20195;-50
2023/12/20 02:08:35;;;;;;;3.67;2.30;;;21.20;73.50;;;;;;5037801;28;21119;-52
2023/12/20 02:11:03;;;;;;;3.67;2.60;;;21.10;73.60;;;;;;5034319;28;20284;-54
2023/12/20 02:13:31;;;;;;;2.83;2.40;;;21.10;73.60;;;;;;5036020;28;21023;-55
2023/12/20 02:15:57;;;;;;;2.80;2.43;;;21.10;73.40;;;;;;5037359;28;20584;-56
2023/12/20 02:18:24;;;;;;;2.53;2.27;;;21.10;73.50;;;;;;5035474;28;21534;-55
2023/12/20 02:20:50;;;;;;;2.70;2.47;;;21.10;73.40;;;;;;5036285;28;20466;-57
2023/12/20 02:23:18;;;;;;;3.10;2.40;;;21.10;73.50;;;;;;5038041;28;20198;-54
2023/12/20 02:25:45;;;;;;;2.70;1.98;;;21.10;73.60;;;;;;5036633;28;20783;-57
2023/12/20 02:28:12;;;;;;;2.58;2.00;;;21.10;73.60;;;;;;5036866;28;20289;-54
2023/12/20 02:30:39;;;;;;;4.40;2.50;;;21.00;74.00;;;;;;5036318;28;20203;-54
2023/12/20 02:33:09;;;;;;;2.20;2.00;;;21.10;73.60;;;;;;5037151;28;20983;-52
2023/12/20 02:35:36;;;;;;;3.25;2.50;;;21.10;73.70;;;;;;5034123;28;20276;-53
2023/12/20 02:38:02;;;;;;;2.92;2.33;;;21.00;73.50;;;;;;5034728;28;20214;-51
2023/12/20 02:40:30;;;;;;;2.80;2.40;;;21.00;73.50;;;;;;5034728;28;20194;-56
2023/12/20 02:43:06;;;;;;;2.63;1.90;;;21.00;73.50;;;;;;5022087;28;20194;-52
2023/12/20 02:45:33;;;;;;;3.95;2.78;;;21.00;73.50;;;;;;5024542;28;20194;-53
2023/12/20 02:48:00;;;;;;;2.92;1.90;;;21.00;73.50;;;;;;5035447;28;20202;-53
2023/12/20 02:50:27;;;;;;;2.03;1.92;;;21.00;73.50;;;;;;5033493;28;20187;-52
2023/12/20 02:52:53;;;;;;;3.10;2.50;;;21.00;73.50;;;;;;5034142;28;20218;-55
2023/12/20 02:55:20;;;;;;;2.60;2.30;;;21.00;73.60;;;;;;5036040;28;20200;-57
2023/12/20 02:57:48;;;;;;;2.55;2.35;;;21.00;73.60;;;;;;5038646;28;20219;-56
2023/12/20 03:00:15;;;;;;;2.03;1.83;;;21.00;73.60;;;;;;5031275;28;20199;-54
2023/12/20 03:02:42;;;;;;;2.30;2.10;;;20.90;73.50;;;;;;5036140;28;21100;-56
2023/12/20 03:05:09;;;;;;;1.90;1.70;;;21.00;73.60;;;;;;5039176;28;20471;-56
2023/12/20 03:07:37;;;;;;;2.95;2.20;;;20.90;73.50;;;;;;5039239;28;20659;-56
2023/12/20 03:10:06;;;;;;;3.50;2.63;;;21.00;73.60;;;;;;5039056;28;20211;-56
2023/12/20 03:12:32;;;;;;;2.67;2.10;;;20.90;73.40;;;;;;5036940;28;20234;-55
2023/12/20 03:15:00;;;;;;;2.30;1.90;;;21.00;73.60;;;;;;5032772;28;20460;-50
2023/12/20 03:17:27;;;;;;;3.05;2.28;;;20.90;73.60;;;;;;5035238;28;20740;-56
2023/12/20 03:19:54;;;;;;;5.57;2.60;;;20.90;73.50;;;;;;5032368;28;20227;-53
2023/12/20 03:22:21;;;;;;;2.10;1.90;;;20.90;73.70;;;;;;5031533;28;20227;-53
2023/12/20 03:24:47;;;;;;;3.25;2.50;;;20.90;73.50;;;;;;5038116;28;20461;-52
2023/12/20 03:27:14;;;;;;;3.33;2.13;;;20.90;73.50;;;;;;5037691;28;20277;-51
2023/12/20 03:29:41;;;;;;;2.42;2.10;;;20.90;73.50;;;;;;5032911;28;20591;-54
2023/12/20 03:32:09;;;;;;;2.85;2.35;;;20.90;73.50;;;;;;5035750;28;20708;-57
2023/12/20 03:34:36;;;;;;;2.42;1.88;;;20.90;73.70;;;;;;5033553;28;21086;-55
2023/12/20 03:37:03;;;;;;;2.90;1.75;;;20.90;73.50;;;;;;5035743;28;20198;-55
2023/12/20 03:39:29;;;;;;;2.22;2.03;;;20.90;73.60;;;;;;5032306;28;20211;-53
2023/12/20 03:41:56;;;;;;;3.25;2.25;;;20.90;73.50;;;;;;5033838;28;20187;-54
2023/12/20 03:44:23;;;;;;;3.53;2.55;;;20.80;73.60;;;;;;5037306;28;20213;-56
2023/12/20 03:46:50;;;;;;;3.40;2.70;;;20.90;73.70;;;;;;5037960;28;20198;-56
2023/12/20 03:49:18;;;;;;;2.97;1.77;;;20.80;73.50;;;;;;5038787;28;20356;-55
2023/12/20 03:51:44;;;;;;;2.57;2.30;;;20.80;73.40;;;;;;5036487;28;20213;-55
2023/12/20 03:54:11;;;;;;;2.70;2.00;;;20.90;73.60;;;;;;5038106;28;20468;-56
2023/12/20 03:56:38;;;;;;;3.75;2.30;;;20.90;73.70;;;;;;5032075;28;23214;-54
2023/12/20 03:59:04;;;;;;;2.55;1.98;;;20.90;73.50;;;;;;5038066;28;20260;-54
2023/12/20 04:01:31;;;;;;;2.58;1.77;;;20.90;73.70;;;;;;5034749;28;20199;-54
2023/12/20 04:03:58;;;;;;;2.33;2.13;;;20.80;73.50;;;;;;5035759;28;20214;-55
2023/12/20 04:06:26;;;;;;;1.85;1.65;;;20.80;73.50;;;;;;5037080;28;20746;-56
2023/12/20 04:08:53;;;;;;;2.60;1.85;;;20.80;73.70;;;;;;5038668;28;20210;-51
2023/12/20 04:11:19;;;;;;;2.65;1.80;;;20.80;73.60;;;;;;5033460;28;21085;-53
2023/12/20 04:13:46;;;;;;;1.92;1.73;;;20.80;73.60;;;;;;5039586;28;20202;-53
2023/12/20 04:16:13;;;;;;;1.73;1.63;;;20.80;73.60;;;;;;5039321;28;20200;-56
2023/12/20 04:18:40;;;;;;;2.50;2.05;;;20.90;73.70;;;;;;5037768;28;20206;-53
2023/12/20 04:21:07;;;;;;;2.22;1.58;;;20.80;73.60;;;;;;5037056;28;20195;-55
2023/12/20 04:23:35;;;;;;;2.45;2.25;;;20.80;73.70;;;;;;5035076;28;20259;-53
2023/12/20 04:26:01;;;;;;;2.45;2.22;;;20.80;73.50;;;;;;5035234;28;20197;-56
2023/12/20 04:28:30;;;;;;;2.22;1.73;;;20.80;74.40;;;;;;5035863;28;22253;-57
2023/12/20 04:30:56;;;;;;;1.93;1.63;;;20.80;73.60;;;;;;5035485;28;20207;-57
2023/12/20 04:33:23;;;;;;;2.40;1.83;;;20.80;73.50;;;;;;5034222;28;20453;-56
2023/12/20 04:35:51;;;;;;;2.30;2.00;;;20.80;73.70;;;;;;5034448;28;20201;-53
2023/12/20 04:38:18;;;;;;;2.80;1.88;;;20.80;73.50;;;;;;5037688;28;20218;-51
2023/12/20 04:40:46;;;;;;;2.85;2.30;;;20.80;73.70;;;;;;5033490;28;20199;-53
2023/12/20 04:43:12;;;;;;;2.10;1.65;;;20.80;73.80;;;;;;5033495;28;20202;-54
2023/12/20 04:45:39;;;;;;;2.58;1.95;;;20.70;73.50;;;;;;5037715;28;20209;-50
2023/12/20 04:48:07;;;;;;;2.80;1.98;;;20.70;73.60;;;;;;5037672;28;20195;-51
2023/12/20 04:50:34;;;;;;;2.03;1.70;;;20.70;73.50;;;;;;5037329;28;20191;-55
2023/12/20 04:53:01;;;;;;;2.00;1.80;;;20.70;73.50;;;;;;5033968;28;21108;-51
2023/12/20 04:55:28;;;;;;;2.58;1.92;;;20.70;73.50;;;;;;5035352;28;20464;-54
2023/12/20 04:57:56;;;;;;;2.33;2.10;;;20.70;73.50;;;;;;5035977;28;26579;-51
2023/12/20 05:00:23;;;;;;;2.55;1.95;;;20.70;73.70;;;;;;5037830;28;20482;-54
2023/12/20 05:02:50;;;;;;;2.05;1.85;;;20.70;73.50;;;;;;5036453;28;20198;-53
2023/12/20 05:05:17;;;;;;;2.38;1.40;;;20.70;73.50;;;;;;5040782;28;20225;-49
2023/12/20 05:07:44;;;;;;;2.25;1.75;;;20.70;73.50;;;;;;5037180;28;20635;-53
2023/12/20 05:10:11;;;;;;;3.50;1.90;;;20.70;73.50;;;;;;5036691;28;20210;-57
2023/12/20 05:12:38;;;;;;;2.17;1.98;;;20.70;73.50;;;;;;5031957;28;20197;-51
2023/12/20 05:15:07;;;;;;;2.83;2.33;;;20.70;73.60;;;;;;5036062;28;20207;-55
2023/12/20 05:17:34;;;;;;;2.60;2.13;;;20.70;73.60;;;;;;5034034;28;20466;-52
2023/12/20 05:20:01;;;;;;;2.10;1.85;;;20.70;73.60;;;;;;5038685;28;20220;-54
2023/12/20 05:22:28;;;;;;;1.95;1.52;;;20.60;73.50;;;;;;5035892;28;20207;-58
2023/12/20 05:24:55;;;;;;;2.00;1.90;;;20.60;73.50;;;;;;5036473;28;20328;-52
2023/12/20 05:27:22;;;;;;;2.40;2.00;;;20.60;73.50;;;;;;5036458;28;21181;-52
2023/12/20 05:29:48;;;;;;;2.15;1.90;;;20.70;73.60;;;;;;5038805;28;20467;-50
2023/12/20 05:32:17;;;;;;;1.70;1.55;;;20.60;73.50;;;;;;5038000;28;20199;-53
2023/12/20 05:34:44;;;;;;;2.17;1.98;;;20.60;73.40;;;;;;5038842;28;20182;-54
2023/12/20 05:37:11;;;;;;;2.05;1.60;;;20.70;73.60;;;;;;5033347;28;20210;-53
2023/12/20 05:39:38;;;;;;;1.55;1.40;;;20.70;73.60;;;;;;5031168;28;20702;-54
2023/12/20 05:42:05;;;;;;;2.63;2.05;;;20.70;73.60;;;;;;5035285;28;20203;-55
2023/12/20 05:44:32;;;;;;;2.22;2.00;;;20.70;73.70;;;;;;5033645;28;20195;-51
2023/12/20 05:46:58;;;;;;;2.58;2.03;;;20.60;73.40;;;;;;5032789;28;20198;-51
2023/12/20 05:49:26;;;;;;;1.88;1.75;;;20.60;73.50;;;;;;5038863;28;20199;-54
2023/12/20 05:51:53;;;;;;;2.00;1.80;;;20.60;73.50;;;;;;5036192;28;20205;-49
2023/12/20 05:54:21;;;;;;;4.55;1.70;;;20.70;73.70;;;;;;5030792;28;20202;-55
2023/12/20 05:56:48;;;;;;;1.98;1.67;;;20.60;73.50;;;;;;5038889;28;20199;-54
2023/12/20 05:59:15;;;;;;;1.50;1.30;;;20.70;73.70;;;;;;5036106;28;20211;-57
2023/12/20 06:01:41;;;;;;;2.00;1.90;;;20.60;73.40;;;;;;5037914;28;20207;-53
2023/12/20 06:04:08;;;;;;;1.55;1.45;;;20.60;73.60;;;;;;5037460;28;20213;-50
2023/12/20 06:06:41;;;;;;;1.95;1.63;;;20.60;73.50;;;;;;5038634;28;20205;-52
2023/12/20 06:09:08;;;;;;;2.15;1.58;;;20.60;73.50;;;;;;5039575;28;20272;-52
2023/12/20 06:11:35;;;;;;;1.95;1.40;;;20.60;73.60;;;;;;5036459;28;20642;-53
2023/12/20 06:14:02;;;;;;;2.13;1.65;;;20.60;73.60;;;;;;5029685;28;20198;-54
2023/12/20 06:16:28;;;;;;;2.08;1.75;;;20.60;73.50;;;;;;5037648;28;20196;-58
2023/12/20 06:18:55;;;;;;;2.05;1.85;;;20.60;73.50;;;;;;5034484;28;20202;-57
2023/12/20 06:21:22;;;;;;;2.05;1.75;;;20.60;73.60;;;;;;5038237;28;20199;-58
2023/12/20 06:23:50;;;;;;;3.47;1.80;;;20.60;73.50;;;;;;5037353;28;20201;-53
2023/12/20 06:26:16;;;;;;;1.80;1.60;;;20.60;73.50;;;;;;5033705;28;20191;-54
2023/12/20 06:28:43;;;;;;;1.60;1.33;;;20.60;73.60;;;;;;5036389;28;20796;-54
2023/12/20 06:31:10;;;;;;;3.22;2.00;;;20.60;73.60;;;;;;5037208;28;20199;-53
2023/12/20 06:33:37;;;;;;;2.03;1.30;;;20.60;73.50;;;;;;5034745;28;20207;-56
2023/12/20 06:36:04;;;;;;;2.03;1.60;;;20.50;73.60;;;;;;5033301;28;20784;-55
2023/12/20 06:38:31;;;;;;;2.40;2.20;;;20.60;73.60;;;;;;5037709;28;20195;-56
2023/12/20 06:40:59;;;;;;;1.88;1.77;;;20.60;73.70;;;;;;5035841;28;20247;-56
2023/12/20 06:43:26;;;;;;;1.85;1.67;;;20.50;73.40;;;;;;5031718;28;20242;-56
2023/12/20 06:45:52;;;;;;;2.30;1.75;;;20.60;73.60;;;;;;5028058;28;20218;-54
2023/12/20 06:48:20;;;;;;;2.13;1.40;;;20.60;73.60;;;;;;5038317;28;20200;-55
2023/12/20 06:50:47;;;;;;;2.20;1.58;;;20.60;73.60;;;;;;5039317;28;20559;-54
2023/12/20 06:53:14;;;;;;;2.28;1.38;;;20.60;73.60;;;;;;5039342;28;20198;-52
2023/12/20 06:55:40;;;;;;;2.23;1.73;;;20.60;73.70;;;;;;5037519;28;20704;-55
2023/12/20 06:58:08;;;;;;;1.85;1.70;;;20.60;73.70;;;;;;5033919;28;20463;-55
2023/12/20 07:00:35;;;;;;;5.05;2.08;;;20.50;73.60;;;;;;5036999;28;20260;-53
2023/12/20 07:03:01;;;;;;;2.20;1.58;;;20.60;73.90;;;;;;5042150;28;20208;-54
2023/12/20 07:05:28;;;;;;;2.00;1.30;;;20.50;73.80;;;;;;5039557;28;20199;-56
2023/12/20 07:07:55;;;;;;;1.92;1.48;;;20.50;73.90;;;;;;5042216;28;20547;-52
2023/12/20 07:10:22;;;;;;;1.75;1.65;;;20.50;74.00;;;;;;5038420;28;20210;-56
2023/12/20 07:12:49;;;;;;;1.50;1.33;;;20.50;74.30;;;;;;5032652;28;20206;-51
2023/12/20 07:15:17;;;;;;;2.78;2.05;;;20.40;73.70;;;;;;5037989;28;20286;-56
2023/12/20 07:17:44;;;;;;;1.60;1.23;;;20.50;74.00;;;;;;5036714;28;20257;-53
2023/12/20 07:20:12;;;;;;;2.58;1.55;;;20.50;73.90;;;;;;5039742;28;20203;-57
2023/12/20 07:22:39;;;;;;;2.00;1.73;;;20.50;74.00;;;;;;5035933;28;20222;-55
2023/12/20 07:25:07;;;;;;;1.90;1.70;;;20.40;73.90;;;;;;5039459;28;20203;-54
2023/12/20 07:27:33;;;;;;;1.70;1.38;;;20.40;74.00;;;;;;5039733;28;20221;-56
2023/12/20 07:30:00;;;;;;;1.92;1.77;;;20.40;74.60;;;;;;5036820;28;20206;-51
2023/12/20 07:32:28;;;;;;;2.22;1.65;;;20.40;74.00;;;;;;5038016;28;20190;-56
2023/12/20 07:34:55;;;;;;;1.92;1.30;;;20.40;74.00;;;;;;5041802;28;20203;-51
2023/12/20 07:37:22;;;;;;;1.70;1.48;;;20.40;73.90;;;;;;5037696;28;21718;-52
2023/12/20 07:39:49;;;;;;;1.83;1.55;;;20.40;73.90;;;;;;5037080;28;20253;-52
2023/12/20 07:42:15;;;;;;;1.77;1.40;;;20.40;74.00;;;;;;5034650;28;20190;-54
2023/12/20 07:44:42;;;;;;;1.70;1.33;;;20.40;74.20;;;;;;5037421;28;20423;-54
2023/12/20 07:47:09;;;;;;;1.60;1.50;;;20.40;74.30;;;;;;5040875;28;20699;-53
2023/12/20 07:49:37;;;;;;;2.03;1.20;;;20.40;74.20;;;;;;5039855;28;20207;-55
2023/12/20 07:52:04;;;;;;;1.83;1.50;;;20.50;74.30;;;;;;5037010;28;20199;-55
2023/12/20 07:54:31;;;;;;;2.13;1.40;;;20.40;74.30;;;;;;5031304;28;24073;-50
2023/12/20 07:56:58;;;;;;;1.70;1.60;;;20.60;74.60;;;;;;5036133;28;20954;-54
2023/12/20 07:59:25;;;;;;;2.20;1.80;;;20.50;74.70;;;;;;5036119;28;20203;-60
2023/12/20 08:01:51;;;;;;;1.90;1.45;;;20.50;74.80;;;;;;5031533;28;20202;-54
2023/12/20 08:04:18;;;;;;;4.28;1.85;;;20.50;74.90;;;;;;5037965;28;20199;-59
2023/12/20 08:06:46;;;;;;;1.63;1.52;;;20.60;75.30;;;;;;5037587;28;20198;-58
2023/12/20 08:09:13;;;;;;;2.10;1.65;;;20.60;75.40;;;;;;5034258;28;20199;-57
2023/12/20 08:11:40;;;;;;;3.05;1.50;;;20.60;75.50;;;;;;5039394;28;20199;-56
2023/12/20 08:14:06;;;;;;;2.22;1.70;;;20.60;75.50;;;;;;5035905;28;20204;-58
2023/12/20 08:16:33;;;;;;;2.15;1.65;;;20.60;75.60;;;;;;5034164;28;20782;-57
2023/12/20 08:19:00;;;;;;;2.67;1.40;;;20.60;75.60;;;;;;5037604;28;20730;-56
2023/12/20 08:21:27;;;;;;;2.20;1.80;;;20.70;75.70;;;;;;5038496;28;20226;-55
2023/12/20 08:23:55;;;;;;;10.48;3.38;;;20.70;75.50;;;;;;5036391;28;20428;-57
2023/12/20 08:26:23;;;;;;;3.28;1.75;;;20.70;75.20;;;;;;5031902;28;20195;-56
2023/12/20 08:28:50;;;;;;;3.70;1.87;;;20.70;75.30;;;;;;5030430;28;20202;-58
2023/12/20 08:31:16;;;;;;;1.83;1.35;;;20.80;75.30;;;;;;5035540;28;20465;-54
2023/12/20 08:33:45;;;;;;;2.07;1.70;;;20.90;75.50;;;;;;5036675;28;20285;-56
2023/12/20 08:36:12;;;;;;;2.20;1.70;;;20.90;75.60;;;;;;5030957;28;20546;-53
2023/12/20 08:38:38;;;;;;;1.53;1.30;;;20.90;75.40;;;;;;5033137;28;20457;-54
2023/12/20 08:41:07;;;;;;;2.20;1.45;;;20.90;75.40;;;;;;5033535;28;20477;-52
2023/12/20 08:43:35;;;;;;;2.43;1.40;;;21.00;75.40;;;;;;5031913;28;21148;-51
2023/12/20 08:46:02;;;;;;;3.43;1.30;;;21.00;75.40;;;;;;5036028;28;20482;-54
2023/12/20 08:48:29;;;;;;;5.13;1.70;;;21.00;75.30;;;;;;5034271;28;20461;-53
2023/12/20 08:50:56;;;;;;;1.13;1.00;;;21.00;75.10;;;;;;5036352;28;20465;-50
2023/12/20 08:53:23;;;;;;;2.43;1.57;;;21.10;75.10;;;;;;5027909;28;20460;-50
2023/12/20 08:55:49;;;;;;;3.07;2.10;;;21.10;75.10;;;;;;5030738;28;20477;-52
2023/12/20 08:58:18;;;;;;;1.60;1.20;;;21.10;75.00;;;;;;5036945;28;20457;-53
2023/12/20 09:00:44;;;;;;;2.07;1.63;;;21.10;74.80;;;;;;5035609;28;21220;-51
2023/12/20 09:03:11;;;;;;;2.00;1.40;;;21.20;74.90;;;;;;5038955;28;20473;-50
2023/12/20 09:05:38;;;;;;;2.73;1.70;;;21.20;74.80;;;;;;5037125;28;20461;-56
2023/12/20 09:08:05;;;;;;;2.17;1.50;;;21.20;74.70;;;;;;5036781;28;20465;-54
2023/12/20 09:10:32;;;;;;;2.57;2.20;;;21.20;74.70;;;;;;5033313;28;20455;-53
2023/12/20 09:12:59;;;;;;;2.07;1.67;;;21.30;74.70;;;;;;5038219;28;20802;-54
2023/12/20 09:15:28;;;;;;;1.87;1.20;;;21.20;74.60;;;;;;5035911;28;20598;-55
2023/12/20 09:17:55;;;;;;;3.40;2.73;;;21.30;74.60;;;;;;5036768;28;20479;-54
2023/12/20 09:20:23;;;;;;;2.43;1.50;;;21.30;74.60;;;;;;5037279;28;20476;-51
2023/12/20 09:22:50;;;;;;;3.40;1.67;;;21.30;74.50;;;;;;5036291;28;20457;-52
2023/12/20 09:25:17;;;;;;;3.60;1.73;;;21.30;75.20;;;;;;5036298;28;20903;-52
2023/12/20 09:27:44;;;;;;;2.33;1.47;;;21.30;75.20;;;;;;5033173;28;20452;-53
2023/12/20 09:30:11;;;;;;;1.50;1.40;;;21.30;74.40;;;;;;5035920;28;20554;-52
2023/12/20 09:32:39;;;;;;;2.50;1.60;;;21.30;74.30;;;;;;5037801;28;20467;-55
2023/12/20 09:35:08;;;;;;;1.97;1.10;;;21.30;74.20;;;;;;5030735;28;20464;-58
2023/12/20 09:37:35;;;;;;;1.90;1.30;;;21.30;74.30;;;;;;5037311;28;20578;-59
2023/12/20 09:40:02;;;;;;;1.63;1.27;;;21.30;74.30;;;;;;5037982;28;20484;-57
2023/12/20 09:42:40;;;;;;;1.80;1.23;;;21.30;74.50;;;;;;5037609;28;20457;-57
2023/12/20 09:45:10;;;;;;;2.50;1.30;;;21.30;74.60;;;;;;5032777;28;20469;-57
2023/12/20 09:47:38;;;;;;;2.27;1.50;;;21.40;74.70;;;;;;5037473;28;20463;-51
2023/12/20 09:50:06;;;;;;;1.50;1.20;;;21.30;74.60;;;;;;5037150;28;20470;-51
2023/12/20 09:52:35;;;;;;;2.00;1.10;;;21.40;74.80;;;;;;5034194;28;21514;-55
2023/12/20 09:55:05;;;;;;;1.80;1.10;;;21.40;74.80;;;;;;5034753;28;20460;-56
2023/12/20 09:57:32;;;;;;;1.77;1.17;;;21.40;74.80;;;;;;5035235;28;20472;-55
2023/12/20 09:59:59;;;;;;;1.80;1.20;;;21.40;74.80;;;;;;5036330;28;20479;-61
2023/12/20 10:02:27;;;;;;;1.67;1.00;;;21.40;74.90;;;;;;5035083;28;20464;-60
2023/12/20 10:04:55;;;;;;;2.40;2.00;;;21.40;74.80;;;;;;5038717;28;20579;-57
2023/12/20 10:07:22;;;;;;;1.50;1.20;;;21.40;74.80;;;;;;5038553;28;20457;-59
2023/12/20 10:09:49;;;;;;;4.40;1.10;;;21.40;74.70;;;;;;5032560;28;20556;-56
2023/12/20 10:12:16;;;;;;;1.73;1.10;;;21.40;74.70;;;;;;5036140;28;20967;-55
2023/12/20 10:14:42;;;;;;;2.67;1.30;;;21.40;74.70;;;;;;5036153;28;21068;-59
2023/12/20 10:17:09;;;;;;;1.93;1.50;;;21.40;75.30;;;;;;5038352;28;20463;-57
2023/12/20 10:19:38;;;;;;;1.50;1.20;;;21.40;74.80;;;;;;5030315;28;20512;-57
2023/12/20 10:22:06;;;;;;;1.90;1.80;;;21.40;74.80;;;;;;5039728;28;20495;-57
2023/12/20 10:24:33;;;;;;;1.50;1.23;;;21.40;74.80;;;;;;5037920;28;20967;-56
2023/12/20 10:27:04;;;;;;;1.90;1.30;;;21.40;74.80;;;;;;5040903;28;20477;-57
2023/12/20 10:29:33;;;;;;;1.97;1.10;;;21.40;74.70;;;;;;5038937;28;20511;-55
2023/12/20 10:32:00;;;;;;;1.50;1.17;;;21.50;74.80;;;;;;5038319;28;20468;-54
2023/12/20 10:34:27;;;;;;;1.70;1.20;;;21.50;74.50;;;;;;5036518;28;20461;-54
2023/12/20 10:36:54;;;;;;;1.90;1.33;;;21.50;74.50;;;;;;5039711;28;20448;-54
2023/12/20 10:39:22;;;;;;;2.20;0.80;;;21.60;74.60;;;;;;5043447;28;20518;-55
2023/12/20 10:41:49;;;;;;;2.70;1.37;;;21.60;74.50;;;;;;5042157;28;20489;-54
2023/12/20 10:44:16;;;;;;;3.03;1.67;;;21.50;74.40;;;;;;5036367;28;20530;-53
2023/12/20 10:46:49;;;;;;;1.90;1.00;;;21.60;74.50;;;;;;5035723;28;20804;-54
2023/12/20 10:49:18;;;;;;;1.57;1.40;;;21.60;74.50;;;;;;5035379;28;20451;-55
2023/12/20 10:51:47;;;;;;;1.73;1.30;;;21.60;74.40;;;;;;5037114;28;20965;-57
2023/12/20 10:54:13;;;;;;;1.40;1.10;;;21.60;74.40;;;;;;5035914;28;20456;-60
2023/12/20 10:56:41;;;;;;;3.43;1.40;;;21.60;74.40;;;;;;5041130;28;20496;-60
2023/12/20 10:59:11;;;;;;;3.10;1.37;;;21.70;74.60;;;;;;5039086;28;21515;-59
2023/12/20 11:01:41;;;;;;;2.70;1.33;;;21.70;74.80;;;;;;5037192;28;20468;-60
2023/12/20 11:04:11;;;;;;;2.53;1.40;;;21.70;74.90;;;;;;5039203;28;20469;-59
2023/12/20 11:06:50;;;;;;;1.80;0.90;;;21.70;75.00;;;;;;5037120;28;20467;-57
2023/12/20 11:09:23;;;;;;;1.77;1.20;;;21.70;75.10;;;;;;5037626;28;20472;-63
2023/12/20 11:12:04;;;;;;;2.47;1.03;;;21.80;75.40;;;;;;5039616;28;20454;-61
2023/12/20 11:14:40;;;;;;;2.20;1.30;;;21.80;75.30;;;;;;5036517;28;21059;-60
2023/12/20 11:17:07;;;;;;;1.93;1.20;;;21.80;75.40;;;;;;5039313;28;20498;-59
2023/12/20 11:19:37;;;;;;;1.90;1.10;;;21.80;75.30;;;;;;5040319;28;20456;-59
2023/12/20 11:22:05;;;;;;;2.83;0.97;;;21.80;75.40;;;;;;5040062;28;20961;-57
2023/12/20 11:24:33;;;;;;;3.73;1.23;;;21.80;75.30;;;;;;5039606;28;20465;-58
2023/12/20 11:27:02;;;;;;;1.77;0.93;;;21.80;75.40;;;;;;5039299;28;20979;-59
2023/12/20 11:29:36;;;;;;;2.47;1.40;;;21.90;75.50;;;;;;5039099;28;20606;-59
2023/12/20 11:32:03;;;;;;;1.83;1.30;;;21.90;75.40;;;;;;5037852;28;20461;-60
2023/12/20 11:34:34;;;;;;;1.57;1.13;;;21.90;75.40;;;;;;5039044;28;21205;-58
2023/12/20 11:37:01;;;;;;;2.70;1.10;;;21.90;75.40;;;;;;5038188;28;20459;-56
2023/12/20 11:39:29;;;;;;;2.03;1.37;;;21.90;75.50;;;;;;5039989;28;20465;-58
2023/12/20 11:41:58;;;;;;;2.17;0.90;;;21.90;75.40;;;;;;5039855;28;20619;-58
2023/12/20 11:44:32;;;;;;;1.67;1.07;;;21.90;75.40;;;;;;5037887;28;23008;-57
2023/12/20 11:46:59;;;;;;;2.67;1.50;;;21.90;75.40;;;;;;5038250;28;20457;-56
2023/12/20 11:49:25;;;;;;;2.63;1.03;;;22.00;75.60;;;;;;5039973;28;20456;-56
2023/12/20 11:51:52;;;;;;;1.47;1.23;;;22.00;75.50;;;;;;5039559;28;20478;-51
2023/12/20 11:54:19;;;;;;;2.90;0.90;;;22.00;75.40;;;;;;5037449;28;21013;-59
2023/12/20 11:56:46;;;;;;;1.73;1.20;;;22.00;75.70;;;;;;5039426;28;21025;-58
2023/12/20 11:59:13;;;;;;;1.57;1.00;;;22.00;75.60;;;;;;5038563;28;20467;-64
2023/12/20 12:01:49;;;;;;;1.30;0.80;;;22.00;76.40;;;;;;5040266;28;20473;-64
2023/12/20 12:04:17;;;;;;;1.73;1.10;;;22.00;75.60;;;;;;5039048;28;20501;-61
2023/12/20 12:06:44;;;;;;;3.80;1.10;;;22.00;75.60;;;;;;5040510;28;20460;-64
2023/12/20 12:09:10;;;;;;;1.97;1.23;;;22.00;75.60;;;;;;5038188;28;20454;-62
2023/12/20 12:11:37;;;;;;;2.03;1.50;;;22.00;75.50;;;;;;5040674;28;21421;-64
2023/12/20 12:14:04;;;;;;;1.43;0.87;;;22.00;75.50;;;;;;5038745;28;20809;-66
2023/12/20 12:16:31;;;;;;;1.97;1.23;;;22.10;75.60;;;;;;5038007;28;20818;-63
2023/12/20 12:19:00;;;;;;;1.73;0.80;;;22.10;75.60;;;;;;5038874;28;20462;-62
2023/12/20 12:21:27;;;;;;;1.63;1.00;;;22.10;75.60;;;;;;5039293;28;20472;-59
2023/12/20 12:23:54;;;;;;;1.20;0.90;;;22.10;75.50;;;;;;5036043;28;21083;-62
2023/12/20 12:26:20;;;;;;;1.27;0.90;;;22.10;75.60;;;;;;5039196;28;20497;-61
2023/12/20 12:28:47;;;;;;;2.90;1.27;;;22.10;75.60;;;;;;5036055;28;20487;-60
2023/12/20 12:31:15;;;;;;;1.00;0.80;;;22.10;75.40;;;;;;5039141;28;20460;-65
2023/12/20 12:33:43;;;;;;;1.83;1.20;;;22.10;75.50;;;;;;5039034;28;20458;-58
2023/12/20 12:36:12;;;;;;;1.80;1.23;;;22.10;75.60;;;;;;5038732;28;20456;-62
2023/12/20 12:38:39;;;;;;;2.90;1.30;;;22.20;75.50;;;;;;5039767;28;20514;-60
2023/12/20 12:41:07;;;;;;;1.77;0.97;;;22.10;75.40;;;;;;5038577;28;20778;-57
2023/12/20 12:43:33;;;;;;;1.73;1.10;;;22.10;75.40;;;;;;5040193;28;20564;-61
2023/12/20 12:46:00;;;;;;;2.20;1.33;;;22.10;75.40;;;;;;5036528;28;21035;-61
2023/12/20 12:48:27;;;;;;;2.30;1.27;;;22.10;75.40;;;;;;5037114;28;20460;-57